Time;durP1;ratioP1;P1;durP2;ratioP2;P2;SDS_P1;SDS_P2;PMS_P1;PMS_P2;Temp;Humidity;BMP_temperature;BMP_pressure;BME280_temperature;BME280_humidity;BME280_pressure;Samples;Min_cycle;Max_cycle;Signal;HPM_P1;HPM_P2
2022/04/08 14:33:30;;;;;;;2.10;2.10;;;7.50;99.90;;;;;;5140799;27;20564;-68
2022/04/08 14:35:57;;;;;;;2.40;2.30;;;7.60;99.90;;;;;;5108246;28;20295;-68
2022/04/08 14:38:24;;;;;;;3.08;2.97;;;7.60;99.90;;;;;;5108070;28;20206;-69
2022/04/08 14:40:51;;;;;;;3.00;2.55;;;7.60;99.90;;;;;;5107021;28;20257;-70
2022/04/08 14:43:18;;;;;;;3.22;2.95;;;7.60;99.90;;;;;;5107818;28;20269;-68
2022/04/08 14:45:45;;;;;;;2.80;2.70;;;7.60;99.90;;;;;;5106528;28;20203;-69
2022/04/08 14:48:12;;;;;;;3.53;3.30;;;7.60;99.90;;;;;;5105755;28;20238;-69
2022/04/08 14:50:40;;;;;;;3.15;3.05;;;7.60;99.90;;;;;;5104124;28;20227;-69
2022/04/08 14:53:07;;;;;;;3.83;3.50;;;7.50;99.90;;;;;;5100105;28;20196;-68
2022/04/08 14:55:34;;;;;;;3.17;2.88;;;7.50;99.90;;;;;;5102836;28;20211;-68
2022/04/08 14:58:02;;;;;;;1.60;1.50;;;7.20;99.90;;;;;;5100663;28;20200;-69
2022/04/08 15:00:29;;;;;;;1.30;1.30;;;6.70;99.90;;;;;;5097821;28;20203;-68
2022/04/08 15:02:57;;;;;;;1.00;0.95;;;6.40;99.90;;;;;;5106546;28;20227;-68
2022/04/08 15:05:24;;;;;;;1.35;1.35;;;6.20;99.90;;;;;;5105083;28;20204;-68
2022/04/08 15:07:52;;;;;;;1.30;1.30;;;6.00;99.90;;;;;;5107107;28;20249;-68
2022/04/08 15:10:19;;;;;;;1.50;1.50;;;6.10;99.90;;;;;;5105776;28;20272;-69
2022/04/08 15:12:45;;;;;;;2.20;2.20;;;6.10;99.90;;;;;;5100870;28;20821;-70
2022/04/08 15:15:12;;;;;;;1.10;1.10;;;6.20;99.90;;;;;;5106941;28;20672;-68
2022/04/08 15:17:39;;;;;;;1.50;1.08;;;6.20;99.90;;;;;;5096319;28;20200;-68
2022/04/08 15:20:08;;;;;;;1.02;1.02;;;6.30;99.90;;;;;;5102191;28;20226;-68
2022/04/08 15:22:35;;;;;;;1.10;0.93;;;6.50;99.90;;;;;;5098140;28;20242;-69
2022/04/08 15:25:03;;;;;;;2.30;2.28;;;6.60;99.90;;;;;;5098525;28;20274;-68
2022/04/08 15:27:30;;;;;;;1.02;1.02;;;6.70;99.90;;;;;;5098798;28;20236;-69
2022/04/08 15:29:56;;;;;;;1.77;1.77;;;6.70;99.90;;;;;;5095649;28;20300;-69
2022/04/08 15:32:25;;;;;;;2.28;1.80;;;6.70;99.90;;;;;;5092293;28;20220;-69
2022/04/08 15:34:52;;;;;;;1.60;1.60;;;6.80;99.90;;;;;;5095724;28;20208;-68
2022/04/08 15:37:18;;;;;;;1.83;1.73;;;6.80;99.90;;;;;;5093325;28;20703;-68
2022/04/08 15:39:47;;;;;;;2.58;2.47;;;6.90;99.90;;;;;;5097516;28;20200;-69
2022/04/08 15:42:16;;;;;;;1.60;1.60;;;6.90;99.90;;;;;;5096670;28;20235;-68
2022/04/08 15:44:43;;;;;;;2.90;1.88;;;7.00;99.90;;;;;;5086123;28;20209;-68
2022/04/08 15:47:09;;;;;;;1.63;1.63;;;7.10;99.90;;;;;;5080669;28;20197;-68
2022/04/08 15:49:37;;;;;;;1.45;1.45;;;7.20;99.90;;;;;;5091707;28;20212;-68
2022/04/08 15:52:04;;;;;;;2.03;2.03;;;7.40;99.90;;;;;;5084960;28;20285;-68
2022/04/08 15:54:31;;;;;;;1.63;1.50;;;7.50;99.90;;;;;;5081179;28;20637;-69
2022/04/08 15:56:58;;;;;;;2.55;2.38;;;7.50;99.90;;;;;;5090450;28;20607;-69
2022/04/08 15:59:26;;;;;;;1.35;1.25;;;7.50;99.90;;;;;;5089984;28;20215;-69
2022/04/08 16:01:52;;;;;;;2.55;2.22;;;7.60;99.90;;;;;;5077155;28;20233;-69
2022/04/08 16:04:19;;;;;;;2.10;2.00;;;7.60;99.90;;;;;;5099622;28;20224;-68
2022/04/08 16:06:46;;;;;;;1.65;1.40;;;7.60;99.90;;;;;;5073014;28;20209;-69
2022/04/08 16:09:12;;;;;;;2.10;1.98;;;7.60;99.90;;;;;;5110494;28;20204;-69
2022/04/08 16:11:41;;;;;;;1.50;1.50;;;7.50;99.90;;;;;;5086345;28;20227;-67
2022/04/08 16:14:08;;;;;;;2.00;1.90;;;7.50;99.90;;;;;;5099058;28;20227;-69
2022/04/08 16:16:35;;;;;;;2.15;2.05;;;7.50;99.90;;;;;;5099344;28;20203;-69
2022/04/08 16:19:02;;;;;;;2.05;2.05;;;7.50;99.90;;;;;;5110263;28;20208;-69
2022/04/08 16:21:29;;;;;;;1.88;1.77;;;7.60;99.90;;;;;;5092933;27;20679;-69
2022/04/08 16:23:56;;;;;;;1.75;1.60;;;7.60;99.90;;;;;;5091269;28;20220;-68
2022/04/08 16:26:23;;;;;;;2.00;1.80;;;7.60;99.90;;;;;;5091603;28;20661;-69
2022/04/08 16:28:50;;;;;;;1.70;1.70;;;7.60;99.90;;;;;;5091750;28;20208;-67
2022/04/08 16:31:17;;;;;;;1.55;1.55;;;7.60;99.90;;;;;;5090303;28;20221;-69
2022/04/08 16:33:45;;;;;;;2.10;2.00;;;7.60;99.90;;;;;;5071628;28;20202;-69
2022/04/08 16:36:12;;;;;;;3.63;3.42;;;7.50;99.90;;;;;;5085701;28;20247;-69
2022/04/08 16:38:38;;;;;;;2.30;2.10;;;7.50;99.90;;;;;;5072253;28;20525;-69
2022/04/08 16:41:05;;;;;;;1.88;1.73;;;7.50;99.90;;;;;;5090435;28;20225;-69
2022/04/08 16:43:32;;;;;;;2.05;2.05;;;7.50;99.90;;;;;;5092363;28;20228;-68
2022/04/08 16:45:58;;;;;;;2.13;1.98;;;7.50;99.90;;;;;;5092248;28;20196;-68
2022/04/08 16:48:25;;;;;;;3.15;2.25;;;7.50;99.90;;;;;;5091212;28;20744;-69
2022/04/08 16:50:53;;;;;;;3.78;2.05;;;7.50;99.90;;;;;;5080581;28;20571;-69
2022/04/08 16:53:20;;;;;;;3.05;3.05;;;7.50;99.90;;;;;;5083982;28;20570;-68
2022/04/08 16:55:47;;;;;;;2.85;2.38;;;7.50;99.90;;;;;;5087068;28;20277;-68
2022/04/08 16:58:13;;;;;;;3.47;3.17;;;7.40;99.90;;;;;;5069245;28;20201;-68
2022/04/08 17:00:40;;;;;;;5.60;2.70;;;7.40;99.90;;;;;;5079934;28;20216;-68
2022/04/08 17:03:08;;;;;;;3.53;3.28;;;7.40;99.90;;;;;;5091168;28;20215;-68
2022/04/08 17:05:34;;;;;;;2.50;2.40;;;7.30;99.90;;;;;;5087896;28;20291;-68
2022/04/08 17:08:02;;;;;;;2.45;2.25;;;7.30;99.90;;;;;;5088774;28;21800;-68
2022/04/08 17:10:31;;;;;;;3.00;1.83;;;7.20;99.90;;;;;;5085619;28;20664;-68
2022/04/08 17:12:58;;;;;;;1.83;1.73;;;7.20;99.90;;;;;;5088825;28;21002;-69
2022/04/08 17:15:25;;;;;;;2.88;2.78;;;7.20;99.90;;;;;;5087287;28;20258;-68
2022/04/08 17:17:51;;;;;;;2.20;2.08;;;7.20;99.90;;;;;;5101323;28;20290;-67
2022/04/08 17:20:18;;;;;;;1.92;1.70;;;7.10;99.90;;;;;;5091652;28;20305;-69
2022/04/08 17:22:45;;;;;;;1.85;1.38;;;7.10;99.90;;;;;;5088332;28;20285;-69
2022/04/08 17:25:13;;;;;;;8.65;1.98;;;7.10;99.90;;;;;;5087926;28;20327;-69
2022/04/08 17:27:40;;;;;;;1.75;1.65;;;7.00;99.90;;;;;;5087448;28;20212;-69
2022/04/08 17:30:07;;;;;;;1.95;1.85;;;7.00;99.90;;;;;;5086788;28;20224;-69
2022/04/08 17:32:34;;;;;;;2.55;2.45;;;6.90;99.90;;;;;;5086520;28;20236;-69
2022/04/08 17:35:01;;;;;;;3.53;3.22;;;6.90;99.90;;;;;;5088848;28;20201;-69
2022/04/08 17:37:28;;;;;;;8.82;5.28;;;6.80;99.90;;;;;;5087500;28;20208;-68
2022/04/08 17:39:55;;;;;;;3.92;2.90;;;6.80;99.90;;;;;;5086551;28;20212;-69
2022/04/08 17:42:23;;;;;;;2.30;2.20;;;6.90;99.90;;;;;;5092045;28;20343;-69
2022/04/08 17:44:51;;;;;;;2.45;2.17;;;7.00;99.90;;;;;;5087674;28;20311;-69
2022/04/08 17:47:18;;;;;;;2.25;2.10;;;6.70;99.90;;;;;;5090988;28;20205;-68
2022/04/08 17:49:46;;;;;;;1.98;1.98;;;6.80;99.90;;;;;;5086738;28;20688;-69
2022/04/08 17:52:14;;;;;;;4.78;2.45;;;6.70;99.90;;;;;;5102009;28;20605;-68
2022/04/08 17:54:41;;;;;;;2.15;2.15;;;6.60;99.90;;;;;;5080136;28;20296;-69
2022/04/08 17:57:08;;;;;;;3.92;2.38;;;6.60;99.90;;;;;;5086228;28;20201;-68
2022/04/08 17:59:36;;;;;;;1.83;1.80;;;6.60;99.90;;;;;;5087402;28;20618;-67
2022/04/08 18:02:05;;;;;;;1.80;1.80;;;6.50;99.90;;;;;;5086846;28;20289;-67
2022/04/08 18:04:32;;;;;;;2.00;2.00;;;6.50;99.90;;;;;;5089291;28;20285;-68
2022/04/08 18:06:58;;;;;;;2.60;2.50;;;6.40;99.90;;;;;;5086400;28;20208;-67
2022/04/08 18:09:25;;;;;;;5.63;2.25;;;6.50;99.90;;;;;;5086880;28;20200;-67
2022/04/08 18:11:52;;;;;;;2.20;2.20;;;6.70;99.90;;;;;;5085220;28;20871;-68
2022/04/08 18:14:18;;;;;;;2.95;2.75;;;6.30;99.90;;;;;;5086559;28;20204;-68
2022/04/08 18:16:46;;;;;;;2.80;2.60;;;6.40;99.90;;;;;;5087905;28;20197;-68
2022/04/08 18:19:13;;;;;;;2.45;2.28;;;6.20;99.90;;;;;;5087496;28;20219;-68
2022/04/08 18:21:39;;;;;;;2.30;2.20;;;6.10;99.90;;;;;;5085780;28;20232;-68
2022/04/08 18:24:07;;;;;;;2.40;2.30;;;6.10;99.90;;;;;;5086777;28;20216;-68
2022/04/08 18:26:34;;;;;;;2.42;2.40;;;6.10;99.90;;;;;;5085879;28;20245;-68
2022/04/08 18:29:00;;;;;;;5.22;3.00;;;6.10;99.90;;;;;;5087111;28;20657;-68
2022/04/08 18:31:27;;;;;;;3.72;3.45;;;6.10;99.90;;;;;;5086229;28;20231;-68
2022/04/08 18:33:55;;;;;;;5.13;4.68;;;6.00;99.90;;;;;;5086857;28;20204;-68
2022/04/08 18:36:22;;;;;;;9.02;3.72;;;6.00;99.90;;;;;;5098679;28;20286;-68
2022/04/08 18:38:48;;;;;;;3.05;2.90;;;6.00;99.90;;;;;;5104029;28;20212;-68
2022/04/08 18:41:15;;;;;;;5.60;3.33;;;5.90;99.90;;;;;;5086331;28;20277;-68
2022/04/08 18:43:42;;;;;;;3.38;3.17;;;5.90;99.90;;;;;;5087120;28;20616;-68
2022/04/08 18:46:10;;;;;;;3.05;2.92;;;5.90;99.90;;;;;;5090814;28;20204;-69
2022/04/08 18:48:38;;;;;;;2.97;2.88;;;6.00;99.90;;;;;;5088603;28;20200;-69
2022/04/08 18:51:07;;;;;;;2.90;2.50;;;5.80;99.90;;;;;;5088386;28;20578;-69
2022/04/08 18:53:33;;;;;;;2.55;2.42;;;5.80;99.90;;;;;;5089824;28;20303;-69
2022/04/08 18:56:00;;;;;;;2.97;2.78;;;5.80;99.90;;;;;;5089345;28;20192;-69
2022/04/08 18:58:27;;;;;;;3.53;3.00;;;5.80;99.90;;;;;;5088264;28;20209;-68
2022/04/08 19:00:54;;;;;;;2.88;2.80;;;5.70;99.90;;;;;;5089172;28;20232;-69
2022/04/08 19:03:21;;;;;;;2.90;2.70;;;5.70;99.90;;;;;;5089810;28;20216;-70
2022/04/08 19:05:47;;;;;;;3.20;3.00;;;5.20;99.90;;;;;;5102030;28;20261;-69
2022/04/08 19:08:15;;;;;;;4.40;4.20;;;5.60;99.90;;;;;;5089936;28;20581;-69
2022/04/08 19:10:42;;;;;;;4.22;4.00;;;5.60;99.90;;;;;;5101775;28;20301;-69
2022/04/08 19:13:09;;;;;;;4.05;3.70;;;5.60;99.90;;;;;;5081475;28;20216;-69
2022/04/08 19:15:36;;;;;;;3.33;3.13;;;5.50;99.90;;;;;;5089063;28;20205;-68
2022/04/08 19:18:03;;;;;;;3.40;3.20;;;5.50;99.90;;;;;;5098133;28;20200;-68
2022/04/08 19:20:29;;;;;;;5.70;3.25;;;5.50;99.90;;;;;;5094253;28;20604;-69
2022/04/08 19:22:57;;;;;;;2.15;2.00;;;5.50;99.90;;;;;;5090228;28;20300;-69
2022/04/08 19:25:25;;;;;;;3.85;2.83;;;5.40;99.90;;;;;;5104185;28;20204;-69
2022/04/08 19:27:52;;;;;;;2.65;2.55;;;5.40;99.90;;;;;;5092193;28;20200;-70
2022/04/08 19:30:19;;;;;;;4.78;2.95;;;5.40;99.90;;;;;;5093532;28;20591;-69
2022/04/08 19:32:46;;;;;;;2.60;2.60;;;5.40;99.90;;;;;;5093477;28;20242;-69
2022/04/08 19:35:13;;;;;;;4.65;2.67;;;5.30;99.90;;;;;;5093065;28;20677;-69
2022/04/08 19:37:40;;;;;;;2.90;2.80;;;5.30;99.90;;;;;;5094034;28;20205;-69
2022/04/08 19:40:08;;;;;;;6.50;3.00;;;5.30;99.90;;;;;;5093151;28;20796;-69
2022/04/08 19:42:36;;;;;;;3.15;2.95;;;5.30;99.90;;;;;;5092445;28;20759;-69
2022/04/08 19:45:05;;;;;;;34.80;14.00;;;5.30;99.90;;;;;;5095772;28;20564;-69
2022/04/08 19:47:33;;;;;;;9.35;6.45;;;5.20;99.90;;;;;;5095683;28;20203;-69
2022/04/08 19:49:59;;;;;;;22.02;10.73;;;5.20;99.90;;;;;;5092546;28;20212;-69
2022/04/08 19:52:26;;;;;;;28.17;13.20;;;5.10;99.90;;;;;;5092973;28;20224;-69
2022/04/08 19:54:53;;;;;;;17.02;9.30;;;5.10;99.90;;;;;;5093111;28;20223;-68
2022/04/08 19:57:19;;;;;;;8.95;6.43;;;5.10;99.90;;;;;;5092494;28;20208;-68
2022/04/08 19:59:47;;;;;;;4.53;3.65;;;5.10;99.90;;;;;;5087267;28;20208;-68
2022/04/08 20:02:14;;;;;;;4.30;3.13;;;5.00;99.90;;;;;;5087787;28;20228;-68
2022/04/08 20:04:41;;;;;;;3.38;2.65;;;5.00;99.90;;;;;;5092333;28;20247;-68
2022/04/08 20:07:07;;;;;;;5.88;3.30;;;4.90;99.90;;;;;;5092819;28;20665;-68
2022/04/08 20:09:35;;;;;;;3.70;3.50;;;4.90;99.90;;;;;;5092449;28;20230;-68
2022/04/08 20:12:03;;;;;;;3.40;2.83;;;4.90;99.90;;;;;;5092313;28;20216;-68
2022/04/08 20:14:30;;;;;;;3.53;3.38;;;4.90;99.90;;;;;;5092409;28;20573;-68
2022/04/08 20:16:58;;;;;;;3.88;2.70;;;4.80;99.90;;;;;;5093860;28;20690;-68
2022/04/08 20:19:24;;;;;;;3.95;3.65;;;4.80;99.90;;;;;;5092023;28;20579;-68
2022/04/08 20:21:51;;;;;;;6.47;5.97;;;4.80;99.90;;;;;;5104546;28;20720;-68
2022/04/08 20:24:19;;;;;;;5.80;5.05;;;4.80;99.90;;;;;;5102733;28;20224;-68
2022/04/08 20:26:45;;;;;;;3.75;2.78;;;4.70;99.90;;;;;;5102788;28;20204;-68
2022/04/08 20:29:12;;;;;;;4.82;3.25;;;4.70;99.90;;;;;;5103654;28;20201;-68
2022/04/08 20:31:40;;;;;;;5.43;3.05;;;4.70;99.90;;;;;;5091143;28;20232;-68
2022/04/08 20:34:08;;;;;;;3.70;3.40;;;4.70;99.90;;;;;;5087392;28;20212;-68
2022/04/08 20:36:35;;;;;;;3.05;2.95;;;4.60;99.90;;;;;;5091959;28;20204;-68
2022/04/08 20:39:04;;;;;;;4.28;3.88;;;4.60;99.90;;;;;;5091804;28;20200;-68
2022/04/08 20:41:31;;;;;;;2.42;2.28;;;4.60;99.90;;;;;;5090668;28;20224;-67
2022/04/08 20:43:58;;;;;;;5.20;3.20;;;4.60;99.90;;;;;;5091891;28;20225;-68
2022/04/08 20:46:26;;;;;;;3.20;3.00;;;4.60;99.90;;;;;;5091517;28;20205;-67
2022/04/08 20:48:52;;;;;;;5.55;4.10;;;4.60;99.90;;;;;;5088421;28;20295;-69
2022/04/08 20:51:21;;;;;;;5.63;4.45;;;4.60;99.90;;;;;;5092113;28;20231;-68
2022/04/08 20:53:48;;;;;;;3.40;3.10;;;4.50;99.90;;;;;;5091668;28;20205;-69
2022/04/08 20:56:16;;;;;;;4.00;3.60;;;4.50;99.90;;;;;;5103498;28;20204;-68
2022/04/08 20:58:44;;;;;;;5.03;3.78;;;4.50;99.90;;;;;;5091621;28;20255;-68
